AirNav   Pilot Hours Calculator
 
 587 users online  

65NM Curtis and Curtis Airport
Forrest, New Mexico, USA

GOING TO FORREST?


FAA INFORMATION EFFECTIVE 31 JANUARY 2019

Location

FAA Identifier: 65NM
Lat/Long: 34-43-36.2390N / 103-36-34.8560W
34-43.603983N / 103-36.580933W
34.7267331 / -103.6096822
(estimated)
Elevation: 4691 ft. / 1429.8 m (surveyed)
Variation: 10E (1985)
From city: 4 miles S of FORREST, NM
Time zone: UTC -7 (UTC -6 during Daylight Saving Time)
Zip code: 88124

Airport Operations

Airport use: Private use. Permission required prior to landing
Activation date: 01/1967
Control tower: no
ARTCC: ALBUQUERQUE CENTER
FSS: ALBUQUERQUE FLIGHT SERVICE STATION
Attendance: UNATNDD
Wind indicator: no
Segmented circle: no

Nearby radio navigation aids

VOR radial/distance  VOR name  Freq  Var
TCCr169/27.3TUCUMCARI VORTAC113.6012E

Airport Services

Airframe service: NONE
Powerplant service: NONE

Runway Information

Runway 17/35

Dimensions: 3600 x 40 ft. / 1097 x 12 m
Surface: dirt
RUNWAY 17  RUNWAY 35
Traffic pattern: leftleft
Obstructions: fencefence

Airport Ownership and Management from official FAA records

Ownership: Privately-owned
Owner: J. V. CURTIS
2909 N PRINCE, SE
CLOVIS, NM 88101
Phone 505-458-6724

Airport Operational Statistics

Aircraft based on the field: 1
Single engine airplanes: 1
    

Instrument Procedures

There are no published instrument procedures at 65NM.

Some nearby airports with instrument procedures:

KCVS - Cannon Air Force Base (25 nm SE)
KTCC - Tucumcari Municipal Airport (27 nm N)
KCVN - Clovis Municipal Airport (32 nm SE)
KPRZ - Portales Municipal Airport (36 nm S)
2T1 - Muleshoe Municipal Airport (58 nm SE)
 
Loc | Ops | Rwys | IFR | FBO | Links
Com | Nav | Svcs | Stats | Notes

Chandler Aviation LLC
 
Area around 65NM (Curtis and Curtis Airport)
 
Road maps at: MapQuest Bing Google
 
Aerial photo
No photo
 
Sectional chart

 
Airport distance calculator
Flying to Curtis and Curtis Airport? Find the distance to fly.

From to 65NM

Sunrise and sunset
Times for 22-Feb-2019
 Local
(UTC-7)
 Zulu
(UTC)
Morning civil twilight06:0813:08
Sunrise06:3313:33
Sunset17:4300:43
Evening civil twilight18:0801:08

Current date and time
Zulu (UTC)  23-Feb-2019 05:18:06
Local (UTC-7)  22-Feb-2019 22:18:06
 
METAR
KCVS 
26nm SE 
230432Z AUTO 00000KT 8SM -RA FEW005 OVC011 05/03 A2975 RMK AO2 RAB25 CIG 010 RWY22 CIG 010 RWY31 SLP070 $
KTCC 
27nm N 
230453Z AUTO 16020G25KT 10SM BKN075 BKN090 OVC110 09/02 A2966 RMK AO2 PK WND 18028/0425 SLP022 T00940022
KCVN 
33nm SE 
230456Z AUTO 00000KT 8SM -RA OVC005 04/03 A2973 RMK AO2 RAB49 CIG 004V009 SLP074 P0000 T00440033
TAF
KCVS 
26nm SE 
230200Z 2302/2408 13015G20KT 9999 FEW150 QNH2986INS BECMG 2306/2307 24025G40KT 9000 -RASN BKN010 OVC040 620255 QNH2964INS TEMPO 2307/2310 6000 -SN OVC008 620105 BECMG 2309/2310 28025G40KT 9999 NSW BKN040 QNH2978INS TEMPO 2313/2316 28030G45KT 520005 BECMG 2321/2322 28018G28KT 9999 SKC QNH2990INS BECMG 2402/2403 24008KT 9999 SKC QNH2990INS TX11/2321Z TN01/2312Z
KTCC 
27nm N 
221738Z 2218/2318 14010KT P6SM SKC FM221930 17017G27KT P6SM SCT070 FM230400 20022G30KT 6SM -SHRASN OVC040 FM230800 24030G40KT P6SM SCT030 BKN040
NOTAMs
Click for the latest NOTAMs
NOTAMs are issued by the DoD/FAA and will open in a separate window not controlled by AirNav.

 

 
 

Would you like to see your business listed on this page?

 If your business provides an interesting product or service to pilots, flight crews, aircraft, or users of the Curtis and Curtis Airport, you should consider listing it here.  To start the listing process, click on the button below
 
Add a business
 

Other Pages about Curtis and Curtis Airport

Update a link
 
Copyright © AirNav, LLC. All rights reserved. Privacy Policy  Contact